Time;durP1;ratioP1;P1;durP2;ratioP2;P2;SDS_P1;SDS_P2;PMS_P1;PMS_P2;Temp;Humidity;BMP_temperature;BMP_pressure;BME280_temperature;BME280_humidity;BME280_pressure;Samples;Min_cycle;Max_cycle;Signal;HPM_P1;HPM_P2
2023/04/29 00:01:04;;;;;;;17.20;12.70;;;;;;;12.56;99.67;100236.60;108223;1253;73396;-66
2023/04/29 00:03:33;;;;;;;19.00;13.00;;;;;;;12.53;99.64;100244.56;108247;1253;60618;-69
2023/04/29 00:06:00;;;;;;;17.80;13.40;;;;;;;12.51;99.85;100243.87;108197;1253;60368;-69
2023/04/29 00:08:27;;;;;;;18.70;13.80;;;;;;;12.49;99.72;100244.68;108449;1253;73134;-67
2023/04/29 00:10:54;;;;;;;20.60;15.20;;;;;;;12.48;99.69;100243.69;108278;1253;60552;-68
2023/04/29 00:13:21;;;;;;;20.10;15.10;;;;;;;12.43;99.51;100244.08;107982;1253;71527;-68
2023/04/29 00:15:47;;;;;;;19.40;14.80;;;;;;;12.40;99.47;100242.79;108672;1253;62443;-68
2023/04/29 00:18:14;;;;;;;21.20;15.90;;;;;;;12.35;99.72;100240.93;108233;1253;60215;-68
2023/04/29 00:20:42;;;;;;;23.60;16.70;;;;;;;12.34;99.89;100236.99;108013;1256;59592;-67
2023/04/29 00:23:08;;;;;;;23.40;17.20;;;;;;;12.30;99.93;100242.95;108489;1253;70025;-68
2023/04/29 00:25:37;;;;;;;24.10;17.60;;;;;;;12.29;99.94;100239.02;108333;1253;73052;-68
2023/04/29 00:28:04;;;;;;;24.90;18.30;;;;;;;12.27;99.93;100241.17;108575;1254;60713;-68
2023/04/29 00:30:33;;;;;;;25.20;17.50;;;;;;;12.23;100.00;100243.00;108241;1253;58381;-70
2023/04/29 00:32:59;;;;;;;29.50;19.80;;;;;;;12.19;100.00;100248.42;108461;1253;72911;-69
2023/04/29 00:35:26;;;;;;;29.20;20.00;;;;;;;12.13;100.00;100257.72;108277;1253;244796;-69
2023/04/29 00:37:53;;;;;;;29.70;19.10;;;;;;;12.10;100.00;100248.54;107932;1253;72480;-69
2023/04/29 00:40:20;;;;;;;31.00;20.50;;;;;;;12.10;100.00;100253.70;108161;1253;60265;-68
2023/04/29 00:42:46;;;;;;;29.50;19.40;;;;;;;12.06;100.00;100247.41;108318;1253;60130;-68
2023/04/29 00:45:13;;;;;;;32.00;20.30;;;;;;;12.03;100.00;100252.66;108058;1254;73966;-68
2023/04/29 00:47:39;;;;;;;35.30;22.10;;;;;;;12.00;100.00;100252.48;108530;1253;60370;-68
2023/04/29 00:50:06;;;;;;;37.40;22.80;;;;;;;11.99;100.00;100254.69;108308;1253;59132;-67
2023/04/29 00:52:34;;;;;;;38.80;22.80;;;;;;;11.95;100.00;100268.48;108223;1253;61876;-68
2023/04/29 00:55:01;;;;;;;39.70;23.00;;;;;;;11.91;100.00;100268.73;108247;1252;60453;-68
2023/04/29 00:57:28;;;;;;;40.80;24.70;;;;;;;11.88;100.00;100267.33;108149;1253;73182;-69
2023/04/29 00:59:57;;;;;;;39.20;23.50;;;;;;;11.85;100.00;100264.61;108497;1253;70156;-68
2023/04/29 01:02:25;;;;;;;38.70;22.40;;;;;;;11.83;100.00;100273.12;108592;1253;71583;-69
2023/04/29 01:04:52;;;;;;;39.00;22.90;;;;;;;11.79;100.00;100280.73;108195;1253;60670;-69
2023/04/29 01:07:51;;;;;;;36.70;22.90;;;;;;;11.78;100.00;100279.45;108980;1253;60044;-69
2023/04/29 01:10:55;;;;;;;38.50;23.60;;;;;;;11.73;100.00;100280.30;108869;1253;74126;-69
2023/04/29 01:13:25;;;;;;;39.50;23.20;;;;;;;11.72;100.00;100285.38;107997;1259;69630;-68
2023/04/29 01:15:54;;;;;;;36.40;21.20;;;;;;;11.70;100.00;100282.81;108747;1256;72937;-68
2023/04/29 01:18:44;;;;;;;35.60;21.10;;;;;;;11.67;100.00;100286.48;108384;1253;60810;-69
2023/04/29 01:21:11;;;;;;;34.60;21.00;;;;;;;11.63;100.00;100286.98;108515;1253;58818;-68
2023/04/29 01:23:37;;;;;;;37.40;23.10;;;;;;;11.62;100.00;100285.74;108062;1253;72673;-68
2023/04/29 01:26:04;;;;;;;38.40;23.40;;;;;;;11.60;100.00;100287.77;108591;1252;69888;-69
2023/04/29 01:28:37;;;;;;;34.00;21.70;;;;;;;11.57;100.00;100288.23;108552;1252;71476;-68
2023/04/29 01:31:17;;;;;;;35.60;21.90;;;;;;;11.53;100.00;100289.92;108158;1252;61695;-69
2023/04/29 01:34:06;;;;;;;33.90;21.10;;;;;;;11.44;100.00;100294.14;108671;1253;59977;-70
2023/04/29 01:36:56;;;;;;;33.40;18.50;;;;;;;11.36;100.00;100294.44;108350;1253;74117;-70
2023/04/29 01:39:34;;;;;;;33.40;20.10;;;;;;;11.26;100.00;100299.39;108395;1253;71397;-70
2023/04/29 01:42:21;;;;;;;39.30;22.20;;;;;;;11.22;100.00;100300.83;108220;1253;71803;-69
2023/04/29 01:44:50;;;;;;;32.70;19.60;;;;;;;11.16;100.00;100296.35;108832;1252;61776;-68
2023/04/29 01:47:17;;;;;;;33.50;20.30;;;;;;;11.12;100.00;100303.45;108150;1254;60258;-69
2023/04/29 01:49:45;;;;;;;30.20;18.40;;;;;;;11.09;100.00;100304.81;108827;1253;72562;-69
2023/04/29 01:52:12;;;;;;;35.10;19.90;;;;;;;11.04;100.00;100306.88;108277;1253;71282;-70
2023/04/29 01:54:39;;;;;;;31.80;18.40;;;;;;;10.99;100.00;100311.98;107768;1253;72390;-68
2023/04/29 01:57:05;;;;;;;31.50;18.10;;;;;;;10.98;100.00;100313.40;107239;1253;60352;-68
2023/04/29 01:59:32;;;;;;;33.00;18.60;;;;;;;10.95;100.00;100323.80;107289;1252;60546;-70
2023/04/29 02:01:58;;;;;;;29.40;19.00;;;;;;;10.92;100.00;100321.08;108188;1253;59663;-69
2023/04/29 02:04:27;;;;;;;30.20;18.40;;;;;;;10.89;100.00;100321.05;108161;1253;71286;-69
2023/04/29 02:06:53;;;;;;;34.10;19.60;;;;;;;10.88;100.00;100319.89;108045;1253;71560;-68
2023/04/29 02:09:20;;;;;;;31.20;18.90;;;;;;;10.87;100.00;100325.15;107812;1253;61954;-69
2023/04/29 02:11:47;;;;;;;30.60;18.40;;;;;;;10.88;100.00;100323.85;107797;1253;60087;-69
2023/04/29 02:14:13;;;;;;;30.90;19.70;;;;;;;10.88;100.00;100329.16;107497;1253;72627;-69
2023/04/29 02:16:44;;;;;;;33.60;20.30;;;;;;;10.88;100.00;100336.21;107359;1256;60485;-69
2023/04/29 02:19:11;;;;;;;35.10;20.90;;;;;;;10.86;100.00;100335.38;108033;1252;72560;-71
2023/04/29 02:21:39;;;;;;;33.00;19.60;;;;;;;10.87;100.00;100336.77;107719;1253;61610;-69
2023/04/29 02:24:05;;;;;;;35.00;21.50;;;;;;;10.87;100.00;100336.20;108120;1252;61009;-69
2023/04/29 02:26:33;;;;;;;36.10;20.90;;;;;;;10.86;100.00;100345.51;107524;1253;72669;-69
2023/04/29 02:29:00;;;;;;;33.60;20.30;;;;;;;10.86;100.00;100345.63;107539;1253;70332;-69
2023/04/29 02:31:27;;;;;;;30.30;18.90;;;;;;;10.85;100.00;100352.75;107411;1253;72681;-69
2023/04/29 02:33:54;;;;;;;32.20;19.20;;;;;;;10.84;100.00;100365.06;107432;1254;60357;-68
2023/04/29 02:36:21;;;;;;;30.10;19.20;;;;;;;10.80;100.00;100367.26;107471;1253;59362;-69
2023/04/29 02:38:49;;;;;;;36.50;22.00;;;;;;;10.79;100.00;100368.23;108146;1253;72370;-69
2023/04/29 02:41:17;;;;;;;36.00;22.00;;;;;;;10.78;100.00;100370.67;107931;1252;70710;-68
2023/04/29 02:43:44;;;;;;;38.60;23.20;;;;;;;10.75;100.00;100377.00;108075;1253;72383;-68
2023/04/29 02:46:11;;;;;;;37.80;23.50;;;;;;;10.73;100.00;100377.63;107551;1253;60768;-69
2023/04/29 02:48:38;;;;;;;37.50;23.00;;;;;;;10.70;100.00;100374.65;107370;1252;60692;-68
2023/04/29 02:51:05;;;;;;;35.20;21.90;;;;;;;10.69;100.00;100377.83;107386;1253;73243;-69
2023/04/29 02:53:32;;;;;;;35.30;22.60;;;;;;;10.63;100.00;100383.80;107614;1253;70006;-69
2023/04/29 02:55:59;;;;;;;33.60;20.80;;;;;;;10.59;100.00;100382.70;107820;1253;70360;-68
2023/04/29 02:58:26;;;;;;;34.50;21.80;;;;;;;10.55;100.00;100385.76;108219;1253;61970;-67
2023/04/29 03:00:53;;;;;;;36.20;22.20;;;;;;;10.53;100.00;100388.72;107769;1252;60096;-67
2023/04/29 03:03:20;;;;;;;30.90;20.80;;;;;;;10.51;100.00;100390.33;107850;1253;72612;-70
2023/04/29 03:05:47;;;;;;;28.00;18.30;;;;;;;10.44;100.00;100390.27;107359;1253;71516;-68
2023/04/29 03:08:14;;;;;;;30.70;20.90;;;;;;;10.40;100.00;100395.02;107580;1254;71377;-67
2023/04/29 03:10:41;;;;;;;28.50;19.20;;;;;;;10.36;100.00;100395.26;107543;1253;61325;-68
2023/04/29 03:13:09;;;;;;;24.90;18.70;;;;;;;10.33;100.00;100402.17;107721;1253;60279;-73
2023/04/29 03:15:35;;;;;;;27.70;19.20;;;;;;;10.31;100.00;100399.98;107557;1253;72338;-69
2023/04/29 03:18:03;;;;;;;26.40;19.40;;;;;;;10.30;100.00;100399.00;108145;1254;71195;-68
2023/04/29 03:20:31;;;;;;;26.90;19.20;;;;;;;10.28;100.00;100404.56;108187;1254;71636;-70
2023/04/29 03:22:59;;;;;;;27.20;19.20;;;;;;;10.27;100.00;100408.10;107570;1252;62162;-67
2023/04/29 03:25:27;;;;;;;27.60;20.20;;;;;;;10.27;100.00;100407.12;107486;1253;60279;-68
2023/04/29 03:27:53;;;;;;;24.70;19.70;;;;;;;10.26;100.00;100408.36;107723;1253;72334;-69
2023/04/29 03:30:20;;;;;;;25.80;19.50;;;;;;;10.26;100.00;100409.14;107898;1253;58338;-67
2023/04/29 03:32:47;;;;;;;26.50;20.60;;;;;;;10.25;100.00;100414.83;107888;1253;73153;-68
2023/04/29 03:35:14;;;;;;;24.30;18.70;;;;;;;10.21;100.00;100414.89;107949;1253;61726;-67
2023/04/29 03:37:43;;;;;;;27.90;20.30;;;;;;;10.14;100.00;100418.61;107945;1253;60294;-68
2023/04/29 03:40:11;;;;;;;28.40;22.80;;;;;;;10.13;100.00;100417.94;107630;1253;73461;-68
2023/04/29 03:42:37;;;;;;;28.50;22.50;;;;;;;10.14;100.00;100420.21;107385;1253;69622;-69
2023/04/29 03:45:05;;;;;;;29.20;22.70;;;;;;;10.14;100.00;100415.98;107911;1253;70642;-68
2023/04/29 03:47:32;;;;;;;27.30;22.20;;;;;;;10.15;100.00;100418.19;107716;1252;60711;-69
2023/04/29 03:49:59;;;;;;;29.90;23.00;;;;;;;10.11;100.00;100422.06;107731;1253;61057;-68
2023/04/29 03:52:26;;;;;;;28.50;22.00;;;;;;;10.06;100.00;100424.36;107397;1256;73201;-68
2023/04/29 03:54:52;;;;;;;27.90;22.40;;;;;;;10.01;100.00;100429.36;108473;1253;71664;-69
2023/04/29 03:57:19;;;;;;;26.40;21.60;;;;;;;9.94;100.00;100432.10;107483;1254;72666;-70
2023/04/29 03:59:49;;;;;;;28.70;22.80;;;;;;;9.88;100.00;100433.66;107551;1253;61437;-67
2023/04/29 04:02:16;;;;;;;28.30;23.00;;;;;;;9.85;100.00;100440.62;107930;1252;61468;-69
2023/04/29 04:04:43;;;;;;;28.50;23.40;;;;;;;9.83;100.00;100442.12;107903;1253;74199;-67
2023/04/29 04:07:10;;;;;;;28.10;21.10;;;;;;;9.80;100.00;100448.73;107694;1253;69867;-69
2023/04/29 04:09:37;;;;;;;25.90;20.80;;;;;;;9.79;100.00;100452.17;107607;1253;71714;-68
2023/04/29 04:12:05;;;;;;;27.90;21.90;;;;;;;9.76;100.00;100459.71;107802;1254;62438;-68
2023/04/29 04:14:32;;;;;;;31.40;24.40;;;;;;;9.73;100.00;100470.20;107589;1252;59060;-69
2023/04/29 04:16:59;;;;;;;31.50;24.20;;;;;;;9.70;100.00;100463.79;107697;1253;73603;-68
2023/04/29 04:19:27;;;;;;;28.20;21.50;;;;;;;9.70;100.00;100470.84;107773;1253;70014;-68
2023/04/29 04:21:55;;;;;;;33.20;25.20;;;;;;;9.69;100.00;100477.44;107871;1253;73184;-69
2023/04/29 04:24:22;;;;;;;36.00;26.90;;;;;;;9.69;100.00;100476.67;107548;1253;60797;-69
2023/04/29 04:26:49;;;;;;;37.40;27.10;;;;;;;9.66;100.00;100480.20;107600;1254;60631;-69
2023/04/29 04:29:15;;;;;;;35.90;25.60;;;;;;;9.67;100.00;100482.22;107964;1253;73663;-69
2023/04/29 04:31:42;;;;;;;39.20;28.40;;;;;;;9.66;100.00;100485.00;107898;1253;69422;-70
2023/04/29 04:34:12;;;;;;;42.10;28.50;;;;;;;9.64;100.00;100492.23;107675;1253;71700;-68
2023/04/29 04:36:40;;;;;;;42.10;29.90;;;;;;;9.64;100.00;100492.96;107790;1253;61877;-68
2023/04/29 04:39:07;;;;;;;42.50;29.40;;;;;;;9.62;100.00;100499.02;107777;1254;59248;-70
2023/04/29 04:41:33;;;;;;;46.70;32.40;;;;;;;9.57;100.00;100498.55;107553;1253;73929;-68
2023/04/29 04:44:01;;;;;;;44.90;30.00;;;;;;;9.53;100.00;100509.85;107489;1253;71389;-66
2023/04/29 04:46:28;;;;;;;49.20;32.10;;;;;;;9.51;100.00;100511.92;107412;1253;71566;-70
2023/04/29 04:48:55;;;;;;;53.80;32.30;;;;;;;9.51;100.00;100515.98;108161;1253;60754;-67
2023/04/29 04:51:22;;;;;;;54.80;33.50;;;;;;;9.52;100.00;100517.21;107550;1252;60410;-67
2023/04/29 04:53:48;;;;;;;52.00;31.90;;;;;;;9.52;100.00;100527.16;107743;1253;73894;-69
2023/04/29 04:56:15;;;;;;;52.20;32.30;;;;;;;9.51;100.00;100524.30;107812;1254;69939;-68
2023/04/29 04:58:42;;;;;;;58.30;35.20;;;;;;;9.50;100.00;100527.91;107544;1252;72677;-68
2023/04/29 05:01:09;;;;;;;54.10;33.60;;;;;;;9.51;100.00;100533.11;107275;1253;60493;-68
2023/04/29 05:03:36;;;;;;;60.20;37.20;;;;;;;9.53;100.00;100537.14;107241;1254;60438;-68
2023/04/29 05:06:03;;;;;;;61.10;37.50;;;;;;;9.55;100.00;100539.35;108151;1254;73590;-68
2023/04/29 05:08:30;;;;;;;61.00;38.50;;;;;;;9.53;100.00;100544.45;107827;1253;71097;-69
2023/04/29 05:10:57;;;;;;;54.80;36.30;;;;;;;9.52;100.00;100549.52;107976;1253;72744;-68
2023/04/29 05:13:24;;;;;;;56.80;36.60;;;;;;;9.51;100.00;100556.17;107775;1253;60709;-67
2023/04/29 05:15:51;;;;;;;54.60;36.20;;;;;;;9.48;100.00;100560.98;108200;1252;60485;-69
2023/04/29 05:18:18;;;;;;;53.00;34.00;;;;;;;9.47;100.00;100559.98;107779;1253;72327;-68
2023/04/29 05:20:45;;;;;;;50.40;33.80;;;;;;;9.45;100.00;100566.55;107416;1253;70556;-68
2023/04/29 05:23:11;;;;;;;53.20;36.40;;;;;;;9.42;100.00;100570.45;107537;1253;71427;-69
2023/04/29 05:25:38;;;;;;;52.80;35.10;;;;;;;9.44;100.00;100570.64;108213;1253;60717;-67
2023/04/29 05:28:06;;;;;;;51.70;34.80;;;;;;;9.44;100.00;100574.08;107942;1253;58935;-69
2023/04/29 05:30:33;;;;;;;50.50;36.40;;;;;;;9.39;100.00;100579.75;107788;1253;72996;-68
2023/04/29 05:33:00;;;;;;;48.30;32.30;;;;;;;9.36;100.00;100581.45;108358;1254;70588;-67
2023/04/29 05:35:27;;;;;;;44.30;31.20;;;;;;;9.33;100.00;100586.09;107830;1252;71692;-70
2023/04/29 05:37:54;;;;;;;41.40;28.70;;;;;;;9.35;100.00;100585.16;107253;1252;60946;-68
2023/04/29 05:40:22;;;;;;;39.80;30.10;;;;;;;9.39;100.00;100585.44;107316;1253;61168;-68
2023/04/29 05:42:48;;;;;;;38.70;27.70;;;;;;;9.41;100.00;100593.88;108315;1253;73093;-69
2023/04/29 05:45:15;;;;;;;36.20;25.90;;;;;;;9.41;100.00;100600.24;108146;1253;71180;-68
2023/04/29 05:47:42;;;;;;;37.70;26.60;;;;;;;9.42;100.00;100603.07;107914;1252;71368;-69
2023/04/29 05:50:10;;;;;;;35.90;24.90;;;;;;;9.44;100.00;100609.73;108557;1252;60753;-69
2023/04/29 05:52:37;;;;;;;35.60;26.30;;;;;;;9.48;100.00;100607.23;107791;1253;60427;-68
2023/04/29 05:55:04;;;;;;;37.40;25.80;;;;;;;9.47;100.00;100617.03;107927;1253;73544;-69
2023/04/29 05:57:33;;;;;;;37.70;25.10;;;;;;;9.47;100.00;100617.60;107552;1253;70290;-72
2023/04/29 06:00:00;;;;;;;38.40;27.10;;;;;;;9.49;100.00;100617.52;107789;1253;70316;-69
2023/04/29 06:02:27;;;;;;;37.30;25.50;;;;;;;9.51;100.00;100622.17;107909;1253;61072;-69
2023/04/29 06:04:54;;;;;;;36.10;25.90;;;;;;;9.51;100.00;100627.04;107764;1253;60427;-70
2023/04/29 06:07:22;;;;;;;33.70;24.00;;;;;;;9.50;100.00;100624.59;107875;1253;72678;-72
2023/04/29 06:09:50;;;;;;;35.80;26.00;;;;;;;9.55;100.00;100627.56;107795;1257;70444;-68
2023/04/29 06:12:17;;;;;;;37.30;26.20;;;;;;;9.63;100.00;100633.11;107714;1253;71866;-69
2023/04/29 06:14:44;;;;;;;42.10;26.60;;;;;;;9.69;100.00;100635.44;107405;1254;61325;-68
2023/04/29 06:17:11;;;;;;;35.40;26.70;;;;;;;9.71;100.00;100642.21;107982;1253;60906;-68
2023/04/29 06:19:37;;;;;;;34.00;25.00;;;;;;;9.75;100.00;100647.10;107620;1258;74199;-69
2023/04/29 06:22:04;;;;;;;32.60;23.50;;;;;;;9.77;100.00;100652.52;107711;1254;69839;-69
2023/04/29 06:24:31;;;;;;;32.20;23.50;;;;;;;9.77;100.00;100661.66;107800;1254;59362;-69
2023/04/29 06:26:58;;;;;;;32.70;22.70;;;;;;;9.79;100.00;100663.01;107424;1253;60497;-69
2023/04/29 06:29:24;;;;;;;29.00;22.20;;;;;;;9.79;100.00;100668.52;107531;1253;59672;-69
2023/04/29 06:31:52;;;;;;;29.50;20.30;;;;;;;9.77;100.00;100671.69;107733;1253;72730;-69
2023/04/29 06:34:19;;;;;;;28.70;22.50;;;;;;;9.76;100.00;100673.70;108077;1254;69678;-67
2023/04/29 06:36:46;;;;;;;27.50;20.60;;;;;;;9.79;100.00;100678.27;107921;1252;59154;-68
2023/04/29 06:39:13;;;;;;;29.00;21.40;;;;;;;9.81;100.00;100681.96;108231;1254;62143;-70
2023/04/29 06:41:39;;;;;;;30.40;20.70;;;;;;;9.83;100.00;100686.48;107935;1252;60066;-70
2023/04/29 06:44:06;;;;;;;27.50;20.70;;;;;;;9.86;100.00;100689.66;107631;1252;72316;-68
2023/04/29 06:46:33;;;;;;;26.00;19.80;;;;;;;9.87;100.00;100693.10;107472;1253;71162;-78
2023/04/29 06:49:00;;;;;;;26.10;19.60;;;;;;;9.88;100.00;100697.94;107601;1254;73314;-78
2023/04/29 06:51:27;;;;;;;26.40;19.30;;;;;;;9.91;100.00;100702.59;107425;1255;60530;-77
2023/04/29 06:53:54;;;;;;;22.90;17.60;;;;;;;9.94;100.00;100707.91;107770;1253;61280;-78
2023/04/29 06:56:22;;;;;;;24.50;18.40;;;;;;;9.97;100.00;100715.83;108344;1253;73987;-77
2023/04/29 06:58:49;;;;;;;22.70;18.30;;;;;;;10.04;100.00;100719.48;108882;1254;71209;-79
2023/04/29 07:01:15;;;;;;;23.30;16.90;;;;;;;10.09;100.00;100725.25;108490;1253;71130;-78
2023/04/29 07:03:42;;;;;;;21.10;16.60;;;;;;;10.13;100.00;100730.84;108565;1254;61852;-79
2023/04/29 07:06:09;;;;;;;22.10;17.30;;;;;;;10.20;100.00;100734.00;108329;1253;60542;-77
2023/04/29 07:08:36;;;;;;;21.10;17.00;;;;;;;10.29;100.00;100738.25;108817;1253;72662;-78
2023/04/29 07:11:03;;;;;;;24.00;18.00;;;;;;;10.43;100.00;100739.38;108808;1254;69608;-79
2023/04/29 07:13:30;;;;;;;22.20;16.90;;;;;;;10.62;99.88;100741.70;108431;1253;72456;-78
2023/04/29 07:15:56;;;;;;;20.10;15.40;;;;;;;10.76;98.37;100744.31;108744;1253;60716;-78
2023/04/29 07:18:23;;;;;;;20.00;15.30;;;;;;;10.89;97.08;100751.93;108139;1253;59352;-79
2023/04/29 07:20:51;;;;;;;18.10;15.20;;;;;;;11.04;96.66;100756.91;107996;1253;72704;-80
2023/04/29 07:23:18;;;;;;;17.70;14.80;;;;;;;11.22;96.25;100764.14;107855;1260;71741;-80
2023/04/29 07:25:45;;;;;;;16.40;13.40;;;;;;;11.31;93.52;100769.13;109059;1256;58369;-79
2023/04/29 07:28:12;;;;;;;18.00;14.60;;;;;;;11.42;93.42;100774.48;109203;1253;63049;-78
2023/04/29 07:30:38;;;;;;;17.70;13.90;;;;;;;11.57;93.64;100776.45;109238;1253;61187;-79
2023/04/29 07:33:05;;;;;;;16.90;13.50;;;;;;;11.71;92.07;100785.56;108874;1253;60602;-80
2023/04/29 07:35:32;;;;;;;15.60;13.90;;;;;;;11.87;91.27;100790.27;108112;1253;59104;-79
2023/04/29 07:37:59;;;;;;;15.40;13.70;;;;;;;12.04;91.09;100793.45;107998;1253;72753;-79
2023/04/29 07:40:25;;;;;;;15.20;13.10;;;;;;;12.13;88.83;100799.27;107812;1253;60417;-79
2023/04/29 07:42:52;;;;;;;13.90;12.10;;;;;;;12.25;88.75;100800.51;108717;1252;58532;-78
2023/04/29 07:45:18;;;;;;;14.70;12.00;;;;;;;12.34;87.82;100808.39;108300;1253;72627;-77
2023/04/29 07:47:45;;;;;;;12.70;10.80;;;;;;;12.34;85.91;100811.02;108265;1252;70854;-78
2023/04/29 07:50:12;;;;;;;14.70;11.80;;;;;;;12.33;85.67;100814.98;108014;1252;71501;-76
2023/04/29 07:52:39;;;;;;;12.80;11.30;;;;;;;12.42;85.12;100812.94;107998;1253;61912;-77
2023/04/29 07:55:06;;;;;;;13.30;11.40;;;;;;;12.54;85.28;100817.64;107626;1253;60475;-76
2023/04/29 07:57:33;;;;;;;13.10;11.70;;;;;;;12.62;84.48;100822.28;107616;1253;71876;-76
2023/04/29 08:00:00;;;;;;;13.50;11.50;;;;;;;12.74;84.46;100822.55;108110;1256;71981;-76
2023/04/29 08:02:26;;;;;;;13.60;10.90;;;;;;;12.80;84.15;100825.85;108398;1253;71714;-74
2023/04/29 08:04:54;;;;;;;11.80;10.50;;;;;;;12.90;84.17;100828.68;107867;1259;61225;-73
2023/04/29 08:07:22;;;;;;;13.00;11.10;;;;;;;12.94;82.43;100829.67;108188;1254;60485;-72
2023/04/29 08:09:48;;;;;;;11.30;10.10;;;;;;;13.02;82.53;100836.29;109132;1253;71994;-73
2023/04/29 08:12:15;;;;;;;11.30;9.60;;;;;;;13.13;81.64;100838.01;108567;1254;71173;-73
2023/04/29 08:14:42;;;;;;;10.00;8.80;;;;;;;13.18;79.82;100842.69;109073;1252;72413;-73
2023/04/29 08:17:09;;;;;;;12.10;9.30;;;;;;;13.20;79.13;100846.88;109065;1252;60711;-74
2023/04/29 08:19:35;;;;;;;12.90;9.70;;;;;;;13.26;79.56;100846.30;108326;1253;60021;-73
2023/04/29 08:22:03;;;;;;;10.80;9.50;;;;;;;13.39;78.98;100850.56;108456;1252;74390;-73
2023/04/29 08:24:30;;;;;;;11.70;9.90;;;;;;;13.44;77.84;100855.98;108051;1260;70160;-74
2023/04/29 08:26:58;;;;;;;11.50;9.10;;;;;;;13.49;78.43;100854.52;108745;1252;72590;-73
2023/04/29 08:29:24;;;;;;;10.10;8.60;;;;;;;13.54;77.36;100857.23;108704;1252;60394;-74
2023/04/29 08:31:52;;;;;;;12.00;8.60;;;;;;;13.55;76.80;100855.31;108487;1254;60454;-71
2023/04/29 08:34:18;;;;;;;9.60;8.60;;;;;;;13.66;77.35;100858.27;108482;1254;74024;-72
2023/04/29 08:36:45;;;;;;;9.50;8.30;;;;;;;13.80;75.46;100862.42;108862;1253;70673;-72
2023/04/29 08:39:12;;;;;;;8.50;7.60;;;;;;;14.00;75.95;100862.25;108826;1253;71500;-72
2023/04/29 08:41:39;;;;;;;8.60;7.50;;;;;;;14.15;74.30;100875.30;108499;1253;64023;-72
2023/04/29 08:44:06;;;;;;;8.70;7.30;;;;;;;14.22;73.03;100870.75;108373;1253;60907;-72
2023/04/29 08:46:32;;;;;;;10.00;7.30;;;;;;;14.34;73.41;100873.74;107689;1254;73100;-74
2023/04/29 08:49:02;;;;;;;9.20;7.50;;;;;;;14.37;71.21;100878.73;108084;1252;71122;-73
2023/04/29 08:51:31;;;;;;;8.30;6.50;;;;;;;14.28;70.84;100874.70;108124;1253;74151;-73
2023/04/29 08:53:57;;;;;;;8.10;7.00;;;;;;;14.18;70.71;100885.29;108135;1254;60752;-75
2023/04/29 08:56:25;;;;;;;7.30;6.10;;;;;;;14.16;71.96;100883.84;107918;1256;59941;-72
2023/04/29 08:58:57;;;;;;;9.70;6.80;;;;;;;14.21;71.43;100883.59;108090;1254;74129;-73
2023/04/29 09:01:27;;;;;;;6.90;6.20;;;;;;;14.20;70.08;100887.08;107817;1254;73704;-75
2023/04/29 09:04:11;;;;;;;8.70;6.10;;;;;;;14.15;69.98;100889.98;107832;1252;73073;-73
2023/04/29 09:06:38;;;;;;;7.30;6.10;;;;;;;14.21;70.19;100889.59;108075;1253;60990;-73
2023/04/29 09:09:05;;;;;;;8.10;6.40;;;;;;;14.30;70.60;100892.04;108185;1253;60355;-73
2023/04/29 09:11:33;;;;;;;9.30;6.50;;;;;;;14.35;69.96;100892.55;107809;1258;75092;-74
2023/04/29 09:14:01;;;;;;;8.70;6.30;;;;;;;14.41;69.41;100893.14;107910;1252;69658;-74
2023/04/29 09:16:28;;;;;;;6.30;5.70;;;;;;;14.45;68.60;100892.50;107307;1254;72731;-74
2023/04/29 09:18:55;;;;;;;8.20;6.00;;;;;;;14.48;68.16;100898.35;107764;1258;60278;-72
2023/04/29 09:21:24;;;;;;;8.50;6.20;;;;;;;14.52;68.27;100900.96;107606;1252;60536;-73
2023/04/29 09:23:53;;;;;;;7.60;6.00;;;;;;;14.48;68.41;100908.13;107621;1259;72383;-75
2023/04/29 09:26:21;;;;;;;7.50;5.30;;;;;;;14.42;68.67;100906.97;107923;1253;70116;-74
2023/04/29 09:29:10;;;;;;;7.60;6.30;;;;;;;14.30;68.10;100915.92;107820;1253;71524;-74
2023/04/29 09:31:40;;;;;;;7.70;6.10;;;;;;;14.24;68.54;100919.82;107461;1256;62091;-73
2023/04/29 09:34:07;;;;;;;7.90;6.10;;;;;;;14.20;68.97;100925.29;107467;1254;60523;-72
2023/04/29 09:36:39;;;;;;;7.20;5.80;;;;;;;14.24;68.80;100928.98;107721;1253;72422;-73
2023/04/29 09:39:11;;;;;;;7.00;6.10;;;;;;;14.31;67.91;100925.45;107492;1253;69687;-73
2023/04/29 09:41:55;;;;;;;7.00;5.40;;;;;;;14.44;67.64;100926.62;107853;1252;72696;-74
2023/04/29 09:44:23;;;;;;;8.20;6.20;;;;;;;14.56;67.17;100926.14;107915;1253;61062;-74
2023/04/29 09:47:03;;;;;;;8.70;5.80;;;;;;;14.60;66.46;100924.88;109141;1254;59154;-74
2023/04/29 09:49:44;;;;;;;8.30;5.90;;;;;;;14.64;66.12;100927.57;109294;1253;73097;-74
2023/04/29 09:52:12;;;;;;;7.00;5.30;;;;;;;14.71;65.64;100931.35;109259;1253;70008;-74
2023/04/29 09:54:40;;;;;;;6.30;5.10;;;;;;;14.75;64.54;100935.02;109272;1253;71103;-73
2023/04/29 09:57:09;;;;;;;7.90;5.50;;;;;;;14.81;64.55;100940.85;108062;1259;61291;-75
2023/04/29 09:59:37;;;;;;;8.10;5.50;;;;;;;14.91;64.57;100940.91;109003;1253;60437;-73
2023/04/29 10:02:14;;;;;;;8.20;5.50;;;;;;;14.85;63.40;100939.89;109007;1256;72413;-73
2023/04/29 10:04:44;;;;;;;7.60;5.10;;;;;;;14.71;64.52;100941.03;108275;1254;69709;-73
2023/04/29 10:07:16;;;;;;;7.10;5.60;;;;;;;14.48;65.33;100940.33;108121;1254;72547;-72
2023/04/29 10:09:45;;;;;;;8.60;6.30;;;;;;;14.36;66.24;100949.39;108791;1253;59163;-73
2023/04/29 10:12:16;;;;;;;7.90;5.80;;;;;;;14.21;67.00;100945.86;108139;1256;60948;-73
2023/04/29 10:14:50;;;;;;;10.00;6.30;;;;;;;14.09;68.08;100951.50;107963;1253;73869;-76
2023/04/29 10:17:25;;;;;;;8.90;6.80;;;;;;;13.86;69.33;100961.92;107968;1254;71048;-73
2023/04/29 10:20:01;;;;;;;9.80;7.60;;;;;;;13.72;70.55;100959.11;108460;1254;71195;-72
2023/04/29 10:22:48;;;;;;;10.50;7.40;;;;;;;13.77;71.21;100960.59;107799;1259;61052;-72
2023/04/29 10:25:17;;;;;;;10.40;7.60;;;;;;;13.76;71.20;100957.96;108230;1254;60421;-73
2023/04/29 10:27:44;;;;;;;8.90;6.80;;;;;;;13.98;71.81;100961.17;108525;1258;72676;-73
2023/04/29 10:30:13;;;;;;;10.80;7.80;;;;;;;14.12;70.44;100958.39;107808;1259;69810;-73
2023/04/29 10:32:40;;;;;;;9.40;7.10;;;;;;;14.35;70.59;100956.20;107990;1253;72373;-73
2023/04/29 10:35:18;;;;;;;11.50;7.30;;;;;;;14.55;67.77;100953.56;107625;1253;60987;-72
2023/04/29 10:37:47;;;;;;;10.20;7.10;;;;;;;14.65;66.84;100952.26;107704;1254;60536;-73
2023/04/29 10:40:35;;;;;;;9.30;7.10;;;;;;;14.82;67.00;100952.36;108040;1253;72724;-73
2023/04/29 10:43:03;;;;;;;10.60;7.90;;;;;;;14.90;65.83;100954.02;109262;1253;70426;-73
2023/04/29 10:45:32;;;;;;;8.60;7.30;;;;;;;14.97;65.34;100956.11;107897;1255;72101;-72
2023/04/29 10:48:05;;;;;;;8.40;6.70;;;;;;;15.09;65.25;100952.47;107523;1253;60912;-72
2023/04/29 10:50:32;;;;;;;8.40;6.90;;;;;;;15.20;64.40;100951.61;109054;1253;60063;-71
2023/04/29 10:53:03;;;;;;;8.30;6.50;;;;;;;15.43;63.71;100952.35;107794;1259;74487;-72
2023/04/29 10:55:34;;;;;;;7.90;6.20;;;;;;;15.68;62.64;100949.88;107654;1254;70173;-74
2023/04/29 10:58:02;;;;;;;11.30;7.10;;;;;;;15.87;62.00;100951.63;108079;1254;72414;-73
2023/04/29 11:00:31;;;;;;;8.40;6.00;;;;;;;16.02;61.91;100949.25;107861;1254;60782;-75
2023/04/29 11:03:00;;;;;;;6.60;5.70;;;;;;;16.11;59.92;100955.35;107836;1254;60485;-72
2023/04/29 11:05:30;;;;;;;9.70;6.90;;;;;;;16.13;58.05;100950.55;107949;1257;73095;-74
2023/04/29 11:08:11;;;;;;;7.00;5.80;;;;;;;16.17;58.04;100948.82;108045;1254;71393;-74